createdAt,value
2023-03-14T00:00:01.306Z,28.60
2023-03-14T00:02:28.516Z,34.22
2023-03-14T00:04:55.234Z,36.75
2023-03-14T00:07:21.945Z,30.35
2023-03-14T00:09:48.732Z,31.20
2023-03-14T00:12:15.544Z,36.78
2023-03-14T00:14:43.606Z,36.90
2023-03-14T00:17:10.379Z,28.98
2023-03-14T00:19:37.181Z,35.38
2023-03-14T00:22:03.933Z,39.60
2023-03-14T00:24:30.621Z,35.72
2023-03-14T00:26:57.364Z,25.73
2023-03-14T00:29:24.111Z,27.05
2023-03-14T00:31:50.911Z,27.65
2023-03-14T00:34:17.625Z,21.40
2023-03-14T00:36:44.314Z,19.80
2023-03-14T00:39:13.106Z,12.50
2023-03-14T00:41:39.801Z,16.40
2023-03-14T00:44:06.517Z,13.95
2023-03-14T00:46:33.529Z,13.38
2023-03-14T00:49:00.263Z,13.05
2023-03-14T00:51:26.986Z,10.55
2023-03-14T00:53:56.068Z,11.20
2023-03-14T00:56:22.903Z,10.35
2023-03-14T00:58:49.645Z,8.73
2023-03-14T01:01:16.517Z,11.10
2023-03-14T01:03:43.331Z,12.80
2023-03-14T01:06:10.131Z,12.38
2023-03-14T01:08:36.866Z,8.70
2023-03-14T01:11:03.572Z,12.35
2023-03-14T01:13:31.685Z,11.18
2023-03-14T01:15:58.419Z,7.63
2023-03-14T01:18:25.754Z,7.43
2023-03-14T01:20:52.567Z,5.22
2023-03-14T01:23:19.245Z,7.25
2023-03-14T01:25:46.036Z,5.15
2023-03-14T01:28:13.137Z,7.50
2023-03-14T01:30:40.241Z,9.00
2023-03-14T01:33:07.397Z,3.92
2023-03-14T01:35:34.166Z,4.07
2023-03-14T01:38:01.182Z,5.82
2023-03-14T01:40:27.992Z,2.00
2023-03-14T01:42:54.671Z,3.28
2023-03-14T01:45:21.419Z,4.35
2023-03-14T01:47:48.470Z,4.90
2023-03-14T01:50:15.222Z,1.95
2023-03-14T01:52:43.086Z,1.48
2023-03-14T01:55:10.401Z,1.83
2023-03-14T01:57:37.308Z,3.60
2023-03-14T02:00:04.984Z,2.70
2023-03-14T02:02:39.685Z,2.10
2023-03-14T02:05:06.566Z,2.90
2023-03-14T02:07:36.384Z,2.05
2023-03-14T02:10:12.738Z,3.20
2023-03-14T02:12:39.450Z,3.78
2023-03-14T02:15:14.052Z,3.53
2023-03-14T02:17:51.140Z,1.90
2023-03-14T02:20:40.940Z,4.43
2023-03-14T02:23:07.758Z,3.25
2023-03-14T02:25:34.481Z,3.67
2023-03-14T02:28:01.266Z,2.53
2023-03-14T02:30:27.966Z,1.95
2023-03-14T02:32:54.786Z,3.38
2023-03-14T02:35:21.540Z,4.00
2023-03-14T02:37:48.553Z,4.03
2023-03-14T02:40:15.434Z,3.47
2023-03-14T02:42:43.451Z,3.67
2023-03-14T02:45:10.199Z,4.38
2023-03-14T02:47:42.592Z,2.65
2023-03-14T02:50:09.365Z,3.75
2023-03-14T02:52:36.722Z,3.10
2023-03-14T02:55:04.542Z,2.65
2023-03-14T02:57:32.600Z,2.58
2023-03-14T02:59:59.466Z,4.15
2023-03-14T03:02:26.377Z,4.25
2023-03-14T03:04:53.106Z,5.53
2023-03-14T03:07:20.904Z,3.08
2023-03-14T03:09:47.626Z,4.03
2023-03-14T03:12:14.457Z,4.57
2023-03-14T03:14:41.422Z,2.70
2023-03-14T03:17:08.868Z,3.25
2023-03-14T03:19:35.635Z,2.75
2023-03-14T03:22:02.333Z,1.95
2023-03-14T03:24:29.038Z,4.03
2023-03-14T03:26:55.781Z,3.28
2023-03-14T03:29:22.608Z,2.65
2023-03-14T03:31:49.346Z,5.35
2023-03-14T03:34:16.776Z,4.95
2023-03-14T03:36:44.695Z,3.97
2023-03-14T03:39:12.597Z,2.75
2023-03-14T03:41:39.383Z,5.03
2023-03-14T03:44:07.019Z,3.22
2023-03-14T03:46:33.798Z,3.85
2023-03-14T03:49:00.589Z,3.60
2023-03-14T03:51:28.668Z,4.80
2023-03-14T03:53:56.238Z,1.80
2023-03-14T03:56:28.795Z,3.22
2023-03-14T03:58:55.572Z,4.15
2023-03-14T04:01:22.218Z,2.63
2023-03-14T04:03:52.527Z,3.97
2023-03-14T04:06:20.357Z,3.30
2023-03-14T04:08:49.388Z,4.63
2023-03-14T04:11:30.910Z,3.00
2023-03-14T04:14:26.542Z,2.47
2023-03-14T04:17:11.652Z,8.13
2023-03-14T04:19:39.248Z,6.13
2023-03-14T04:22:07.946Z,4.38
2023-03-14T04:24:43.795Z,3.85
2023-03-14T04:27:10.528Z,4.35
2023-03-14T04:29:37.506Z,4.80
2023-03-14T04:32:04.426Z,3.05
2023-03-14T04:34:31.114Z,4.82
2023-03-14T04:36:58.367Z,7.03
2023-03-14T04:39:31.846Z,5.47
2023-03-14T04:42:08.847Z,5.47
2023-03-14T04:44:37.746Z,6.80
2023-03-14T04:47:04.440Z,5.20
2023-03-14T04:49:32.061Z,6.80
2023-03-14T04:52:00.301Z,3.25
2023-03-14T04:54:28.728Z,8.35
2023-03-14T04:56:58.498Z,5.85
2023-03-14T04:59:27.676Z,6.30
2023-03-14T05:01:58.053Z,6.85
2023-03-14T05:05:03.377Z,6.03
2023-03-14T05:07:45.390Z,8.20
2023-03-14T05:10:36.873Z,3.85
2023-03-14T05:13:14.682Z,8.07
2023-03-14T05:15:51.693Z,11.18
2023-03-14T05:18:50.900Z,9.35
2023-03-14T05:21:56.187Z,10.38
2023-03-14T05:24:35.347Z,6.55
2023-03-14T05:27:27.887Z,7.03
2023-03-14T05:30:22.803Z,8.70
2023-03-14T05:33:12.550Z,10.88
2023-03-14T05:36:02.366Z,13.60
2023-03-14T05:38:51.787Z,7.95
2023-03-14T05:41:38.905Z,10.38
2023-03-14T05:44:21.984Z,12.68
2023-03-14T05:47:08.973Z,9.75
2023-03-14T05:49:41.399Z,8.75
2023-03-14T05:52:15.637Z,9.18
2023-03-14T05:54:48.586Z,9.55
2023-03-14T05:57:34.031Z,9.30
2023-03-14T06:00:19.163Z,10.88
2023-03-14T06:03:07.632Z,7.80
2023-03-14T06:05:37.886Z,6.93
2023-03-14T06:08:04.589Z,8.27
2023-03-14T06:10:32.387Z,8.70
2023-03-14T06:12:59.170Z,8.52
2023-03-14T06:15:26.000Z,10.10
2023-03-14T06:17:55.354Z,13.88
2023-03-14T06:20:22.190Z,7.32
2023-03-14T06:22:49.162Z,10.55
2023-03-14T06:25:15.925Z,10.38
2023-03-14T06:27:46.091Z,9.13
2023-03-14T06:30:12.825Z,9.07
2023-03-14T06:32:39.568Z,7.50
2023-03-14T06:35:10.216Z,7.35
2023-03-14T06:37:40.804Z,12.13
2023-03-14T06:40:08.400Z,8.60
2023-03-14T06:42:57.720Z,10.05
2023-03-14T06:45:27.089Z,9.13
2023-03-14T06:47:55.240Z,8.15
2023-03-14T06:50:26.604Z,7.47
2023-03-14T06:52:53.464Z,11.40
2023-03-14T06:55:24.392Z,10.60
2023-03-14T06:57:54.722Z,9.27
2023-03-14T07:00:21.787Z,8.73
2023-03-14T07:02:48.978Z,7.43
2023-03-14T07:05:25.098Z,11.50
2023-03-14T07:07:52.186Z,5.80
2023-03-14T07:10:18.932Z,6.35
2023-03-14T07:12:45.765Z,11.18
2023-03-14T07:15:18.700Z,12.73
2023-03-14T07:17:49.273Z,7.93
2023-03-14T07:20:18.158Z,9.52
2023-03-14T07:22:45.209Z,8.55
2023-03-14T07:25:13.168Z,7.70
2023-03-14T07:27:39.969Z,9.95
2023-03-14T07:30:06.865Z,9.13
2023-03-14T07:32:33.939Z,9.40
2023-03-14T07:35:00.872Z,8.93
2023-03-14T07:37:27.795Z,8.02
2023-03-14T07:39:54.856Z,8.82
2023-03-14T07:42:26.499Z,17.35
2023-03-14T07:45:12.344Z,6.78
2023-03-14T07:47:39.278Z,7.22
2023-03-14T07:50:05.987Z,7.35
2023-03-14T07:52:32.922Z,6.60
2023-03-14T07:54:59.672Z,11.77
2023-03-14T07:57:26.543Z,10.23
2023-03-14T07:59:53.338Z,9.15
2023-03-14T08:02:23.446Z,9.10
2023-03-14T08:04:50.485Z,5.18
2023-03-14T08:07:17.209Z,5.55
2023-03-14T08:09:44.023Z,4.53
2023-03-14T08:12:10.703Z,6.65
2023-03-14T08:14:37.659Z,6.97
2023-03-14T08:17:04.414Z,5.60
2023-03-14T08:19:31.280Z,6.20
2023-03-14T08:21:57.997Z,8.80
2023-03-14T08:24:24.750Z,6.68
2023-03-14T08:26:51.505Z,4.47
2023-03-14T08:29:18.267Z,5.78
2023-03-14T08:31:45.632Z,5.32
2023-03-14T08:34:12.485Z,4.97
2023-03-14T08:36:39.417Z,4.68
2023-03-14T08:39:08.443Z,4.40
2023-03-14T08:41:41.082Z,3.25
2023-03-14T08:44:07.976Z,2.35
2023-03-14T08:46:34.755Z,3.83
2023-03-14T08:49:01.504Z,4.43
2023-03-14T08:51:28.226Z,1.83
2023-03-14T08:53:54.979Z,2.85
2023-03-14T08:56:23.854Z,2.55
2023-03-14T08:58:52.429Z,3.20
2023-03-14T09:01:20.396Z,2.25
2023-03-14T09:03:49.187Z,13.98
2023-03-14T09:06:18.970Z,4.25
2023-03-14T09:08:46.474Z,2.10
2023-03-14T09:11:13.340Z,5.15
2023-03-14T09:13:40.221Z,2.72
2023-03-14T09:16:06.999Z,1.50
2023-03-14T09:18:33.822Z,1.65
2023-03-14T09:21:00.574Z,1.45
2023-03-14T09:23:27.466Z,1.33
2023-03-14T09:25:54.170Z,1.27
2023-03-14T09:28:20.921Z,2.45
2023-03-14T09:30:47.616Z,2.42
2023-03-14T09:33:14.409Z,2.95
2023-03-14T09:35:41.160Z,2.08
2023-03-14T09:38:08.001Z,3.80
2023-03-14T09:40:34.687Z,3.88
2023-03-14T09:43:01.429Z,4.18
2023-03-14T09:45:28.107Z,2.72
2023-03-14T09:47:59.423Z,4.70
2023-03-14T09:50:26.843Z,4.85
2023-03-14T09:52:53.682Z,6.18
2023-03-14T09:55:22.372Z,8.88
2023-03-14T09:57:49.365Z,6.53
2023-03-14T10:00:16.182Z,4.18
2023-03-14T10:02:42.952Z,4.65
2023-03-14T10:05:09.724Z,4.65
2023-03-14T10:07:36.445Z,7.82
2023-03-14T10:10:03.575Z,6.63
2023-03-14T10:12:30.295Z,8.60
2023-03-14T10:14:57.126Z,7.18
2023-03-14T10:17:24.434Z,6.55
2023-03-14T10:19:51.233Z,5.65
2023-03-14T10:22:17.924Z,4.68
2023-03-14T10:24:44.642Z,10.25
2023-03-14T10:27:11.375Z,10.00
2023-03-14T10:29:38.107Z,5.68
2023-03-14T10:32:04.857Z,8.15
2023-03-14T10:34:31.677Z,7.97
2023-03-14T10:36:58.582Z,10.02
2023-03-14T10:39:25.664Z,10.23
2023-03-14T10:41:52.416Z,8.27
2023-03-14T10:44:19.311Z,6.95
2023-03-14T10:46:45.991Z,7.75
2023-03-14T10:49:26.316Z,10.00
2023-03-14T10:51:53.008Z,10.23
2023-03-14T10:54:19.716Z,6.47
2023-03-14T10:56:46.493Z,6.22
2023-03-14T10:59:13.154Z,7.85
2023-03-14T11:01:40.024Z,8.27
2023-03-14T11:04:06.795Z,8.23
2023-03-14T11:06:33.631Z,7.88
2023-03-14T11:09:01.576Z,5.38
2023-03-14T11:11:28.320Z,6.68
2023-03-14T11:13:55.095Z,6.85
2023-03-14T11:16:21.890Z,6.88
2023-03-14T11:18:48.806Z,5.50
2023-03-14T11:21:15.632Z,6.90
2023-03-14T11:23:42.546Z,6.25
2023-03-14T11:26:09.358Z,6.80
2023-03-14T11:28:36.139Z,8.73
2023-03-14T11:31:02.902Z,7.93
2023-03-14T11:33:29.693Z,7.32
2023-03-14T11:35:56.556Z,8.30
2023-03-14T11:38:23.257Z,7.63
2023-03-14T11:40:50.281Z,8.93
2023-03-14T11:43:17.086Z,13.73
2023-03-14T11:45:44.225Z,23.45
2023-03-14T11:48:11.060Z,8.35
2023-03-14T11:50:37.820Z,8.85
2023-03-14T11:53:04.522Z,8.73
2023-03-14T11:55:31.330Z,9.27
2023-03-14T11:57:58.059Z,10.43
2023-03-14T12:00:24.826Z,10.38
2023-03-14T12:02:52.048Z,12.05
2023-03-14T12:05:18.798Z,9.15
2023-03-14T12:07:45.519Z,11.68
2023-03-14T12:10:12.225Z,11.27
2023-03-14T12:12:38.939Z,13.02
2023-03-14T12:15:05.655Z,10.68
2023-03-14T12:17:32.326Z,6.00
2023-03-14T12:19:59.135Z,6.90
2023-03-14T12:22:25.959Z,10.00
2023-03-14T12:24:52.717Z,10.50
2023-03-14T12:27:19.434Z,11.48
2023-03-14T12:29:46.222Z,10.48
2023-03-14T12:32:12.959Z,12.00
2023-03-14T12:34:40.410Z,8.48
2023-03-14T12:37:08.394Z,7.88
2023-03-14T12:39:35.169Z,7.85
2023-03-14T12:42:01.838Z,10.52
2023-03-14T12:44:28.614Z,11.65
2023-03-14T12:46:55.290Z,9.13
2023-03-14T12:49:24.023Z,8.52
2023-03-14T12:51:50.716Z,7.90
2023-03-14T12:54:17.498Z,10.02
2023-03-14T12:56:44.183Z,9.60
2023-03-14T12:59:11.007Z,7.82
2023-03-14T13:01:37.722Z,8.27
2023-03-14T13:04:04.599Z,7.85
2023-03-14T13:06:31.387Z,7.32
2023-03-14T13:08:58.251Z,8.10
2023-03-14T13:11:24.988Z,13.48
2023-03-14T13:13:51.735Z,8.35
2023-03-14T13:16:18.627Z,6.90
2023-03-14T13:18:45.526Z,9.38
2023-03-14T13:21:12.259Z,8.20
2023-03-14T13:23:39.088Z,6.93
2023-03-14T13:26:05.789Z,5.95
2023-03-14T13:28:32.595Z,6.68
2023-03-14T13:30:59.411Z,9.63
2023-03-14T13:33:26.248Z,8.32
2023-03-14T13:35:53.110Z,6.97
2023-03-14T13:38:19.925Z,5.72
2023-03-14T13:40:46.711Z,8.27
2023-03-14T13:43:13.655Z,6.00
2023-03-14T13:45:40.338Z,6.43
2023-03-14T13:48:07.063Z,7.75
2023-03-14T13:50:33.738Z,7.80
2023-03-14T13:53:00.506Z,7.43
2023-03-14T13:55:27.236Z,7.75
2023-03-14T13:57:57.007Z,5.65
2023-03-14T14:00:24.924Z,6.97
2023-03-14T14:02:52.773Z,5.97
2023-03-14T14:05:19.506Z,7.57
2023-03-14T14:07:46.287Z,8.27
2023-03-14T14:10:12.985Z,6.38
2023-03-14T14:12:39.743Z,5.78
2023-03-14T14:15:06.454Z,6.85
2023-03-14T14:17:33.343Z,7.47
2023-03-14T14:20:00.062Z,3.38
2023-03-14T14:22:26.849Z,5.28
2023-03-14T14:24:53.600Z,4.43
2023-03-14T14:27:27.359Z,5.88
2023-03-14T14:29:54.318Z,5.32
2023-03-14T14:32:21.045Z,6.32
2023-03-14T14:34:50.937Z,5.25
2023-03-14T14:37:17.716Z,3.53
2023-03-14T14:39:44.446Z,6.00
2023-03-14T14:42:11.148Z,6.05
2023-03-14T14:44:38.077Z,8.77
2023-03-14T14:47:04.757Z,6.40
2023-03-14T14:49:31.532Z,6.47
2023-03-14T14:51:58.207Z,6.75
2023-03-14T14:54:24.959Z,5.18
2023-03-14T14:56:51.679Z,7.05
2023-03-14T14:59:18.421Z,4.45
2023-03-14T15:01:45.151Z,4.38
2023-03-14T15:04:12.148Z,6.53
2023-03-14T15:06:38.967Z,6.35
2023-03-14T15:09:05.723Z,6.38
2023-03-14T15:11:32.392Z,4.60
2023-03-14T15:13:59.147Z,3.70
2023-03-14T15:16:25.863Z,5.85
2023-03-14T15:18:52.728Z,3.20
2023-03-14T15:21:19.558Z,7.57
2023-03-14T15:23:46.274Z,4.68
2023-03-14T15:26:12.997Z,9.82
2023-03-14T15:28:39.915Z,7.28
2023-03-14T15:31:06.638Z,2.85
2023-03-14T15:33:33.765Z,5.03
2023-03-14T15:36:02.037Z,4.20
2023-03-14T15:38:28.840Z,5.43
2023-03-14T15:40:55.638Z,4.20
2023-03-14T15:43:22.457Z,4.53
2023-03-14T15:45:50.010Z,4.68
2023-03-14T15:48:16.796Z,6.45
2023-03-14T15:50:43.533Z,4.78
2023-03-14T15:53:10.275Z,4.28
2023-03-14T15:55:36.961Z,5.28
2023-03-14T15:58:03.799Z,4.40
2023-03-14T16:00:30.477Z,4.13
2023-03-14T16:02:57.250Z,4.55
2023-03-14T16:05:23.982Z,5.10
2023-03-14T16:07:50.998Z,3.58
2023-03-14T16:10:17.696Z,5.22
2023-03-14T16:12:44.536Z,5.78
2023-03-14T16:15:11.390Z,4.90
2023-03-14T16:17:38.851Z,5.85
2023-03-14T16:20:05.662Z,3.08
2023-03-14T16:22:35.877Z,5.28
2023-03-14T16:25:02.656Z,5.50
2023-03-14T16:27:30.728Z,9.27
2023-03-14T16:29:57.444Z,3.60
2023-03-14T16:32:24.445Z,4.55
2023-03-14T16:34:51.322Z,4.72
2023-03-14T16:37:18.033Z,5.40
2023-03-14T16:40:10.362Z,6.45
2023-03-14T16:42:31.520Z,4.63
2023-03-14T16:44:58.273Z,5.70
2023-03-14T16:47:25.024Z,8.30
2023-03-14T16:49:51.767Z,4.13
2023-03-14T16:52:18.575Z,3.60
2023-03-14T16:54:45.287Z,3.63
2023-03-14T16:57:12.009Z,5.78
2023-03-14T16:59:38.740Z,3.30
2023-03-14T17:02:05.461Z,4.05
2023-03-14T17:04:32.393Z,5.70
2023-03-14T17:06:59.221Z,5.00
2023-03-14T17:09:26.106Z,4.25
2023-03-14T17:11:53.037Z,3.80
2023-03-14T17:14:19.731Z,5.68
2023-03-14T17:16:46.462Z,3.53
2023-03-14T17:19:13.171Z,5.72
2023-03-14T17:21:40.078Z,5.60
2023-03-14T17:24:06.784Z,5.28
2023-03-14T17:26:34.302Z,4.10
2023-03-14T17:29:00.980Z,6.97
2023-03-14T17:31:27.855Z,4.13
2023-03-14T17:33:55.295Z,4.80
2023-03-14T17:36:25.172Z,5.10
2023-03-14T17:38:54.226Z,4.03
2023-03-14T17:41:21.586Z,3.80
2023-03-14T17:43:48.374Z,10.85
2023-03-14T17:46:16.895Z,4.40
2023-03-14T17:48:43.813Z,7.13
2023-03-14T17:51:10.510Z,11.32
2023-03-14T17:53:37.249Z,6.28
2023-03-14T17:56:04.057Z,5.55
2023-03-14T17:58:30.938Z,5.70
2023-03-14T18:00:57.686Z,5.40
2023-03-14T18:03:24.499Z,5.28
2023-03-14T18:05:51.258Z,4.32
2023-03-14T18:08:17.997Z,5.63
2023-03-14T18:10:44.747Z,4.22
2023-03-14T18:13:11.489Z,2.78
2023-03-14T18:15:38.381Z,2.72
2023-03-14T18:18:05.282Z,5.20
2023-03-14T18:20:31.996Z,3.65
2023-03-14T18:23:00.730Z,8.13
2023-03-14T18:25:27.560Z,6.60
2023-03-14T18:27:54.288Z,7.57
2023-03-14T18:30:21.200Z,8.13
2023-03-14T18:32:48.133Z,5.88
2023-03-14T18:35:14.925Z,8.02
2023-03-14T18:37:41.615Z,9.23
2023-03-14T18:40:10.484Z,6.03
2023-03-14T18:42:37.321Z,8.55
2023-03-14T18:45:04.097Z,10.32
2023-03-14T18:47:31.914Z,10.20
2023-03-14T18:49:58.726Z,8.52
2023-03-14T18:52:25.421Z,5.35
2023-03-14T18:54:52.473Z,5.43
2023-03-14T18:57:19.233Z,4.20
2023-03-14T18:59:45.937Z,6.63
2023-03-14T19:02:12.725Z,7.15
2023-03-14T19:04:39.600Z,9.02
2023-03-14T19:07:06.302Z,4.50
2023-03-14T19:09:33.031Z,4.03
2023-03-14T19:12:00.000Z,8.63
2023-03-14T19:14:26.764Z,9.95
2023-03-14T19:16:53.552Z,6.43
2023-03-14T19:19:21.164Z,7.53
2023-03-14T19:21:47.869Z,5.47
2023-03-14T19:24:14.680Z,4.65
2023-03-14T19:26:41.468Z,7.55
2023-03-14T19:29:09.319Z,5.68
2023-03-14T19:31:36.117Z,9.13
2023-03-14T19:34:02.984Z,6.68
2023-03-14T19:36:29.716Z,4.45
2023-03-14T19:38:56.533Z,7.40
2023-03-14T19:41:23.378Z,8.70
2023-03-14T19:43:50.137Z,5.30
2023-03-14T19:46:16.934Z,5.40
2023-03-14T19:48:45.493Z,5.05
2023-03-14T19:51:12.424Z,6.03
2023-03-14T19:53:39.250Z,6.00
2023-03-14T19:56:08.261Z,16.73
2023-03-14T19:58:35.236Z,17.75
2023-03-14T20:01:02.564Z,7.63
2023-03-14T20:03:29.379Z,5.93
2023-03-14T20:05:56.144Z,7.78
2023-03-14T20:08:22.919Z,5.63
2023-03-14T20:10:49.662Z,5.72
2023-03-14T20:13:21.750Z,9.02
2023-03-14T20:15:49.212Z,6.07
2023-03-14T20:18:15.997Z,5.43
2023-03-14T20:20:42.849Z,10.15
2023-03-14T20:23:09.645Z,5.70
2023-03-14T20:25:37.763Z,10.43
2023-03-14T20:28:05.273Z,4.80
2023-03-14T20:30:32.087Z,7.38
2023-03-14T20:32:58.965Z,8.43
2023-03-14T20:35:25.708Z,7.05
2023-03-14T20:37:52.429Z,5.97
2023-03-14T20:40:19.201Z,7.82
2023-03-14T20:42:46.121Z,6.20
2023-03-14T20:45:12.916Z,5.68
2023-03-14T20:47:39.686Z,8.30
2023-03-14T20:50:06.413Z,7.70
2023-03-14T20:52:33.252Z,10.95
2023-03-14T20:55:00.098Z,6.63
2023-03-14T20:57:27.059Z,8.18
2023-03-14T20:59:53.875Z,8.13
2023-03-14T21:05:05.011Z,12.30
2023-03-14T21:07:33.604Z,8.82
2023-03-14T21:10:00.378Z,7.50
2023-03-14T21:12:27.076Z,4.63
2023-03-14T21:14:53.731Z,7.07
2023-03-14T21:17:21.045Z,6.60
2023-03-14T21:19:47.954Z,7.25
2023-03-14T21:22:18.409Z,6.60
2023-03-14T21:24:45.735Z,6.85
2023-03-14T21:27:12.482Z,6.47
2023-03-14T21:29:39.185Z,6.13
2023-03-14T21:32:06.030Z,4.25
2023-03-14T21:34:32.981Z,4.10
2023-03-14T21:36:59.722Z,4.35
2023-03-14T21:39:26.546Z,5.63
2023-03-14T21:41:53.202Z,6.18
2023-03-14T21:44:20.567Z,4.15
2023-03-14T21:46:47.283Z,3.53
2023-03-14T21:49:14.063Z,5.45
2023-03-14T21:51:40.741Z,3.47
2023-03-14T21:54:10.072Z,5.03
2023-03-14T21:56:36.870Z,5.63
2023-03-14T21:59:03.733Z,4.35
2023-03-14T22:01:32.142Z,4.25
2023-03-14T22:03:58.890Z,6.70
2023-03-14T22:06:25.556Z,3.90
2023-03-14T22:08:52.318Z,4.80
2023-03-14T22:11:19.148Z,4.30
2023-03-14T22:13:45.773Z,5.28
2023-03-14T22:16:12.465Z,8.07
2023-03-14T22:18:39.449Z,6.40
2023-03-14T22:21:06.127Z,5.03
2023-03-14T22:23:32.807Z,4.07
2023-03-14T22:25:59.477Z,4.53
2023-03-14T22:28:26.143Z,5.40
2023-03-14T22:30:52.968Z,3.25
2023-03-14T22:33:19.930Z,4.20
2023-03-14T22:35:46.630Z,5.82
2023-03-14T22:38:13.365Z,3.03
2023-03-14T22:40:40.041Z,3.70
2023-03-14T22:43:06.710Z,6.15
2023-03-14T22:45:33.597Z,5.03
2023-03-14T22:48:00.296Z,3.97
2023-03-14T22:50:27.000Z,2.70
2023-03-14T22:52:54.315Z,3.40
2023-03-14T22:55:20.975Z,3.45
2023-03-14T22:57:47.751Z,5.25
2023-03-14T23:00:16.875Z,3.13
2023-03-14T23:02:43.757Z,3.90
2023-03-14T23:05:10.753Z,3.92
2023-03-14T23:07:37.484Z,3.63
2023-03-14T23:10:07.104Z,3.42
2023-03-14T23:12:33.979Z,4.20
2023-03-14T23:15:00.691Z,4.35
2023-03-14T23:17:27.370Z,6.20
2023-03-14T23:19:54.078Z,4.93
2023-03-14T23:22:20.723Z,3.05
2023-03-14T23:24:48.753Z,3.90
2023-03-14T23:27:15.760Z,4.22
2023-03-14T23:29:42.500Z,4.57
2023-03-14T23:32:09.289Z,6.70
2023-03-14T23:34:37.426Z,4.65
2023-03-14T23:37:05.023Z,5.30
2023-03-14T23:39:31.752Z,6.57
2023-03-14T23:41:58.434Z,5.45
2023-03-14T23:44:26.568Z,4.50
2023-03-14T23:46:53.335Z,5.28
2023-03-14T23:49:20.212Z,3.33
2023-03-14T23:51:46.947Z,5.80
2023-03-14T23:54:13.593Z,2.83
2023-03-14T23:56:41.243Z,4.22
2023-03-14T23:59:07.941Z,4.82
